createdAt,value
2019-04-11T00:00:57.989Z,64.10
2019-04-11T00:03:27.156Z,64.20
2019-04-11T00:05:55.630Z,64.60
2019-04-11T00:08:24.068Z,64.60
2019-04-11T00:10:53.536Z,64.40
2019-04-11T00:13:25.632Z,64.10
2019-04-11T00:15:52.949Z,64.60
2019-04-11T00:18:22.773Z,64.60
2019-04-11T00:20:52.630Z,65.10
2019-04-11T00:23:21.815Z,65.20
2019-04-11T00:25:51.441Z,65.60
2019-04-11T00:28:20.213Z,65.60
2019-04-11T00:30:48.652Z,66.00
2019-04-11T00:33:18.127Z,66.50
2019-04-11T00:35:46.788Z,66.00
2019-04-11T00:38:16.492Z,66.60
2019-04-11T00:40:45.825Z,66.40
2019-04-11T00:43:26.769Z,66.30
2019-04-11T00:45:45.562Z,67.10
2019-04-11T00:48:14.430Z,67.00
2019-04-11T00:50:43.345Z,67.70
2019-04-11T00:53:11.945Z,68.20
2019-04-11T00:55:40.425Z,68.20
2019-04-11T00:58:09.620Z,68.50
2019-04-11T01:00:39.783Z,68.20
2019-04-11T01:03:09.637Z,68.60
2019-04-11T01:05:39.340Z,68.20
2019-04-11T01:08:08.314Z,68.30
2019-04-11T01:10:36.754Z,69.00
2019-04-11T01:13:07.062Z,69.00
2019-04-11T01:15:36.809Z,69.30
2019-04-11T01:18:05.602Z,69.40
2019-04-11T01:20:53.735Z,69.60
2019-04-11T01:23:22.770Z,69.50
2019-04-11T01:25:52.735Z,70.70
2019-04-11T01:28:21.184Z,70.10
2019-04-11T01:30:54.139Z,70.40
2019-04-11T01:33:22.572Z,70.40
2019-04-11T01:35:51.008Z,71.00
2019-04-11T01:38:21.345Z,70.60
2019-04-11T01:40:49.840Z,70.80
2019-04-11T01:43:18.319Z,71.40
2019-04-11T01:45:46.740Z,71.60
2019-04-11T01:48:17.481Z,72.40
2019-04-11T01:50:45.986Z,72.60
2019-04-11T01:53:15.161Z,73.20
2019-04-11T01:55:44.935Z,73.60
2019-04-11T01:58:14.218Z,74.00
2019-04-11T02:00:44.492Z,74.60
2019-04-11T02:03:30.879Z,73.90
2019-04-11T02:05:59.404Z,74.30
2019-04-11T02:08:27.853Z,74.20
2019-04-11T02:10:57.122Z,74.10
2019-04-11T02:13:25.934Z,74.40
2019-04-11T02:15:56.847Z,74.80
2019-04-11T02:18:25.576Z,75.80
2019-04-11T02:20:54.356Z,75.30
2019-04-11T02:23:24.892Z,75.50
2019-04-11T02:26:05.045Z,75.70
2019-04-11T02:28:34.865Z,76.30
2019-04-11T02:31:05.421Z,76.70
2019-04-11T02:33:34.860Z,76.60
2019-04-11T02:36:05.092Z,77.40
2019-04-11T02:38:34.795Z,77.50
2019-04-11T02:41:05.949Z,78.10
2019-04-11T02:43:34.763Z,78.20
2019-04-11T02:46:11.834Z,78.50
2019-04-11T02:48:35.527Z,78.80
2019-04-11T02:51:05.718Z,79.00
2019-04-11T02:53:36.648Z,79.30
2019-04-11T02:56:06.330Z,78.90
2019-04-11T02:58:36.926Z,79.20
2019-04-11T03:01:07.914Z,79.60
2019-04-11T03:03:37.352Z,79.70
2019-04-11T03:06:07.051Z,79.90
2019-04-11T03:08:36.736Z,80.50
2019-04-11T03:11:07.766Z,80.50
2019-04-11T03:13:38.155Z,81.00
2019-04-11T03:16:23.290Z,81.10
2019-04-11T03:18:57.377Z,81.30
2019-04-11T03:21:13.762Z,80.90
2019-04-11T03:23:38.100Z,81.10
2019-04-11T03:26:09.854Z,81.50
2019-04-11T03:28:57.800Z,81.80
2019-04-11T03:32:05.304Z,82.20
2019-04-11T03:39:15.663Z,81.60
2019-04-11T03:41:45.443Z,81.70
2019-04-11T03:44:04.255Z,82.10
2019-04-11T03:46:44.984Z,83.00
2019-04-11T03:49:06.195Z,82.30
2019-04-11T03:51:29.691Z,82.30
2019-04-11T03:53:59.114Z,82.10
2019-04-11T03:56:28.664Z,82.50
2019-04-11T03:58:57.884Z,82.70
2019-04-11T04:01:27.109Z,83.20
2019-04-11T04:03:55.987Z,82.90
2019-04-11T04:06:25.528Z,83.00
2019-04-11T04:08:55.582Z,82.80
2019-04-11T04:11:29.545Z,82.70
2019-04-11T04:14:36.956Z,82.80
2019-04-11T04:17:19.734Z,82.70
2019-04-11T04:19:54.482Z,83.50
2019-04-11T04:22:29.384Z,83.00
2019-04-11T04:24:58.892Z,83.00
2019-04-11T04:27:28.119Z,83.30
2019-04-11T04:29:58.519Z,83.30
2019-04-11T04:32:28.005Z,84.20
2019-04-11T04:34:58.378Z,87.80
2019-04-11T04:37:47.463Z,88.30
2019-04-11T04:40:31.390Z,87.50
2019-04-11T04:42:51.000Z,86.80
2019-04-11T04:45:17.143Z,85.90
2019-04-11T04:47:51.428Z,84.70
2019-04-11T04:50:15.726Z,84.30
2019-04-11T04:52:45.013Z,83.90
2019-04-11T04:55:13.604Z,82.80
2019-04-11T04:57:42.972Z,83.60
2019-04-11T05:00:14.089Z,83.40
2019-04-11T05:02:44.076Z,83.50
2019-04-11T05:05:13.638Z,83.80
2019-04-11T05:07:44.817Z,84.70
2019-04-11T05:10:13.468Z,84.10
2019-04-11T05:12:42.061Z,83.10
2019-04-11T05:15:12.077Z,82.50
2019-04-11T05:17:43.597Z,82.50
2019-04-11T05:20:11.945Z,82.20
2019-04-11T05:22:41.504Z,81.80
2019-04-11T05:25:10.696Z,81.60
2019-04-11T05:27:39.806Z,81.80
2019-04-11T05:30:09.364Z,83.00
2019-04-11T05:32:37.902Z,82.60
2019-04-11T05:35:06.997Z,80.70
2019-04-11T05:37:36.332Z,79.60
2019-04-11T05:40:07.333Z,79.60
2019-04-11T05:42:36.006Z,79.00
2019-04-11T05:45:06.197Z,78.90
2019-04-11T05:47:35.466Z,78.30
2019-04-11T05:52:44.227Z,78.20
2019-04-11T05:55:13.795Z,77.80
2019-04-11T05:57:46.748Z,77.20
2019-04-11T06:00:21.408Z,76.60
2019-04-11T06:02:57.986Z,77.00
2019-04-11T06:08:25.455Z,77.10
2019-04-11T06:10:52.533Z,77.10
2019-04-11T06:13:22.774Z,77.10
2019-04-11T06:15:59.373Z,76.80
2019-04-11T06:18:52.877Z,76.10
2019-04-11T06:21:24.060Z,76.00
2019-04-11T06:23:57.367Z,75.60
2019-04-11T06:26:44.962Z,75.30
2019-04-11T06:29:28.392Z,75.00
2019-04-11T06:35:16.675Z,73.60
2019-04-11T06:37:49.914Z,73.10
2019-04-11T06:40:26.418Z,72.70
2019-04-11T06:42:57.665Z,72.50
2019-04-11T06:45:44.270Z,72.20
2019-04-11T06:48:14.333Z,71.90
2019-04-11T06:50:47.236Z,71.90
2019-04-11T06:53:17.277Z,71.70
2019-04-11T06:55:57.317Z,70.70
2019-04-11T06:58:30.291Z,70.70
2019-04-11T07:01:01.323Z,70.60
2019-04-11T07:03:32.408Z,69.80
2019-04-11T07:06:03.315Z,69.80
2019-04-11T07:08:34.187Z,70.00
2019-04-11T07:11:19.911Z,70.00
2019-04-11T07:13:53.300Z,69.30
2019-04-11T07:16:21.979Z,69.00
2019-04-11T07:19:01.138Z,67.80
2019-04-11T07:21:31.217Z,68.20
2019-04-11T07:24:18.189Z,69.00
2019-04-11T07:26:47.954Z,68.60
2019-04-11T07:29:24.105Z,68.00
2019-04-11T07:31:57.119Z,67.90
2019-04-11T07:34:43.563Z,66.40
2019-04-11T07:37:32.631Z,65.90
2019-04-11T07:40:15.600Z,67.70
2019-04-11T07:42:52.956Z,66.30
2019-04-11T07:45:26.412Z,64.90
2019-04-11T07:48:08.754Z,65.00
2019-04-11T07:50:37.344Z,64.40
2019-04-11T07:53:08.575Z,61.40
2019-04-11T07:55:38.800Z,61.70
2019-04-11T07:58:19.731Z,59.50
2019-04-11T08:00:54.134Z,59.70
2019-04-11T08:03:25.542Z,58.80
2019-04-11T08:06:05.227Z,58.30
2019-04-11T08:08:36.681Z,56.80
2019-04-11T08:11:09.734Z,56.10
2019-04-11T08:13:57.886Z,56.00
2019-04-11T08:16:46.893Z,55.40
2019-04-11T08:19:33.387Z,54.90
2019-04-11T08:22:09.152Z,54.60
2019-04-11T08:24:39.241Z,54.30
2019-04-11T08:27:27.657Z,53.70
2019-04-11T08:29:58.273Z,52.80
2019-04-11T08:32:44.903Z,52.20
2019-04-11T08:35:33.159Z,51.60
2019-04-11T08:38:09.931Z,51.90
2019-04-11T08:40:47.154Z,52.20
2019-04-11T08:43:26.902Z,50.30
2019-04-11T08:45:58.249Z,49.80
2019-04-11T08:48:28.892Z,49.80
2019-04-11T08:50:59.136Z,50.20
2019-04-11T08:53:35.402Z,49.70
2019-04-11T08:56:05.457Z,49.30
2019-04-11T08:58:38.534Z,48.60
2019-04-11T09:01:08.588Z,47.10
2019-04-11T09:04:04.618Z,47.50
2019-04-11T09:06:28.615Z,46.00
2019-04-11T09:09:01.338Z,46.30
2019-04-11T09:11:32.964Z,47.00
2019-04-11T09:14:19.983Z,46.60
2019-04-11T09:17:06.438Z,46.70
2019-04-11T09:19:45.492Z,46.00
2019-04-11T09:22:27.506Z,45.80
2019-04-11T09:24:57.590Z,47.00
2019-04-11T09:27:31.191Z,48.90
2019-04-11T09:30:04.553Z,49.60
2019-04-11T09:32:44.445Z,49.70
2019-04-11T09:35:29.706Z,48.90
2019-04-11T09:38:06.390Z,48.70
2019-04-11T09:40:45.826Z,49.10
2019-04-11T09:43:19.623Z,48.50
2019-04-11T09:45:50.945Z,47.90
2019-04-11T09:48:37.806Z,47.30
2019-04-11T09:51:26.482Z,47.40
2019-04-11T09:54:01.883Z,46.30
2019-04-11T09:56:50.101Z,47.20
2019-04-11T09:59:27.195Z,47.80
2019-04-11T10:02:16.847Z,47.40
2019-04-11T10:04:48.081Z,46.70
2019-04-11T10:07:28.131Z,46.80
2019-04-11T10:10:04.743Z,59.70
2019-04-11T10:13:10.854Z,62.10
2019-04-11T10:15:41.052Z,50.60
2019-04-11T10:18:27.802Z,46.40
2019-04-11T10:20:53.574Z,47.00
2019-04-11T10:23:42.980Z,47.90
2019-04-11T10:26:11.896Z,47.70
2019-04-11T10:28:54.310Z,46.90
2019-04-11T10:31:22.782Z,46.70
2019-04-11T10:33:59.531Z,46.50
2019-04-11T10:36:29.795Z,46.10
2019-04-11T10:39:11.793Z,45.80
2019-04-11T10:41:44.588Z,45.10
2019-04-11T10:44:15.889Z,44.80
2019-04-11T10:46:52.410Z,44.30
2019-04-11T10:49:39.340Z,43.90
2019-04-11T10:52:22.558Z,44.30
2019-04-11T10:55:05.187Z,44.20
2019-04-11T10:57:50.397Z,44.00
2019-04-11T11:00:20.978Z,45.10
2019-04-11T11:02:57.846Z,45.60
2019-04-11T11:05:28.380Z,46.30
2019-04-11T11:07:59.268Z,46.90
2019-04-11T11:10:29.437Z,46.90
2019-04-11T11:13:18.085Z,46.70
2019-04-11T11:15:49.706Z,46.70
2019-04-11T11:18:54.087Z,46.40
2019-04-11T11:20:54.996Z,46.30
2019-04-11T11:23:38.481Z,46.30
2019-04-11T11:26:10.998Z,46.60
2019-04-11T11:28:47.046Z,46.20
2019-04-11T11:31:18.134Z,45.50
2019-04-11T11:33:46.960Z,45.40
2019-04-11T11:42:08.184Z,45.80
2019-04-11T11:44:57.258Z,47.00
2019-04-11T11:47:44.813Z,47.50
2019-04-11T11:50:20.382Z,48.30
2019-04-11T11:52:51.118Z,48.20
2019-04-11T11:55:21.839Z,48.00
2019-04-11T11:57:53.103Z,48.60
2019-04-11T12:00:23.665Z,49.20
2019-04-11T12:02:54.390Z,49.30
2019-04-11T12:05:26.890Z,49.10
2019-04-11T12:08:16.435Z,48.80
2019-04-11T12:13:40.824Z,49.40
2019-04-11T12:16:23.764Z,48.90
2019-04-11T12:18:56.902Z,48.60
2019-04-11T12:21:29.360Z,49.40
2019-04-11T12:24:15.458Z,49.10
2019-04-11T12:27:02.284Z,48.60
2019-04-11T12:29:36.401Z,49.00
2019-04-11T12:32:10.304Z,48.90
2019-04-11T12:34:41.028Z,48.80
2019-04-11T12:37:14.856Z,48.70
2019-04-11T12:39:44.531Z,47.80
2019-04-11T12:42:17.304Z,48.20
2019-04-11T12:44:47.384Z,48.20
2019-04-11T12:47:23.982Z,48.50
2019-04-11T12:49:54.146Z,49.20
2019-04-11T12:52:42.723Z,49.60
2019-04-11T12:55:32.465Z,50.40
2019-04-11T12:58:18.908Z,49.90
2019-04-11T13:01:07.033Z,50.50
2019-04-11T13:03:53.447Z,50.90
2019-04-11T13:06:35.247Z,50.80
2019-04-11T13:09:18.610Z,51.20
2019-04-11T13:11:51.382Z,51.40
2019-04-11T13:14:30.627Z,51.90
2019-04-11T13:17:07.024Z,51.70
2019-04-11T13:19:38.629Z,51.30
2019-04-11T13:22:08.873Z,50.80
2019-04-11T13:24:55.454Z,51.20
2019-04-11T13:27:25.838Z,51.60
2019-04-11T13:30:04.939Z,51.00
2019-04-11T13:32:35.187Z,51.20
2019-04-11T13:35:06.867Z,51.40
2019-04-11T13:37:53.634Z,51.70
2019-04-11T13:43:24.367Z,50.40
2019-04-11T13:46:11.187Z,50.20
2019-04-11T13:48:57.245Z,50.50
2019-04-11T13:51:30.321Z,51.30
2019-04-11T13:54:17.126Z,51.00
2019-04-11T13:57:03.724Z,50.30
2019-04-11T13:59:42.398Z,49.90
2019-04-11T14:02:15.066Z,49.70
2019-04-11T14:04:50.939Z,49.30
2019-04-11T14:07:23.421Z,49.20
2019-04-11T14:10:05.491Z,49.10
2019-04-11T14:12:34.130Z,49.30
2019-04-11T14:15:10.240Z,49.00
2019-04-11T14:17:56.948Z,48.70
2019-04-11T14:20:30.353Z,48.70
2019-04-11T14:23:03.166Z,48.70
2019-04-11T14:25:50.737Z,48.90
2019-04-11T14:28:20.851Z,49.40
2019-04-11T14:30:52.515Z,50.10
2019-04-11T14:33:23.585Z,50.10
2019-04-11T14:35:59.125Z,50.40
2019-04-11T14:38:32.016Z,50.30
2019-04-11T14:41:17.215Z,50.00
2019-04-11T14:43:47.555Z,50.70
2019-04-11T14:46:36.512Z,51.00
2019-04-11T14:49:05.707Z,51.10
2019-04-11T14:51:43.900Z,50.90
2019-04-11T14:54:22.810Z,50.30
2019-04-11T14:56:53.039Z,50.70
2019-04-11T14:59:25.850Z,50.80
2019-04-11T15:01:55.944Z,51.10
2019-04-11T15:04:26.237Z,51.00
2019-04-11T15:06:56.414Z,51.20
2019-04-11T15:09:46.487Z,51.50
2019-04-11T15:12:23.656Z,51.60
2019-04-11T15:15:19.884Z,52.20
2019-04-11T15:17:49.454Z,52.60
2019-04-11T15:20:25.694Z,52.80
2019-04-11T15:22:55.844Z,52.30
2019-04-11T15:25:25.994Z,52.30
2019-04-11T15:27:56.081Z,52.60
2019-04-11T15:30:28.822Z,52.40
2019-04-11T15:33:01.355Z,51.90
2019-04-11T15:35:29.864Z,51.70
2019-04-11T15:38:19.410Z,51.50
2019-04-11T15:40:48.895Z,51.70
2019-04-11T15:43:21.616Z,52.00
2019-04-11T15:45:51.688Z,52.10
2019-04-11T15:48:40.091Z,51.70
2019-04-11T15:51:10.163Z,51.10
2019-04-11T15:53:46.204Z,51.10
2019-04-11T15:56:32.756Z,51.10
2019-04-11T15:59:08.630Z,51.20
2019-04-11T16:02:14.194Z,50.90
2019-04-11T16:04:46.838Z,51.10
2019-04-11T16:07:23.009Z,51.70
2019-04-11T16:09:53.333Z,51.60
2019-04-11T16:12:35.144Z,51.90
2019-04-11T16:15:24.548Z,51.70
2019-04-11T16:17:54.638Z,51.70
2019-04-11T16:20:24.227Z,51.70
2019-04-11T16:22:55.356Z,51.40
2019-04-11T16:25:28.740Z,51.50
2019-04-11T16:28:12.959Z,51.60
2019-04-11T16:30:43.108Z,51.40
2019-04-11T16:33:13.194Z,51.40
2019-04-11T16:35:52.342Z,51.50
2019-04-11T16:38:38.747Z,51.10
2019-04-11T16:41:25.118Z,51.60
2019-04-11T16:44:04.340Z,51.90
2019-04-11T16:46:34.600Z,52.20
2019-04-11T16:49:03.100Z,52.80
2019-04-11T16:51:31.594Z,52.80
2019-04-11T16:54:00.047Z,52.90
2019-04-11T16:56:28.561Z,53.20
2019-04-11T16:58:57.142Z,53.40
2019-04-11T17:01:25.661Z,53.30
2019-04-11T17:03:55.134Z,53.50
2019-04-11T17:06:32.056Z,53.70
2019-04-11T17:09:02.273Z,53.60
2019-04-11T17:11:30.935Z,53.60
2019-04-11T17:13:59.421Z,53.60
2019-04-11T17:16:30.327Z,53.60
2019-04-11T17:18:58.122Z,53.80
2019-04-11T17:21:27.014Z,54.10
2019-04-11T17:23:55.871Z,54.30
2019-04-11T17:26:24.544Z,53.90
2019-04-11T17:28:54.520Z,54.10
2019-04-11T17:31:25.674Z,54.10
2019-04-11T17:33:56.684Z,54.00
2019-04-11T17:36:26.375Z,54.60
2019-04-11T17:38:54.921Z,53.90
2019-04-11T17:41:23.378Z,54.00
2019-04-11T17:43:51.977Z,54.00
2019-04-11T17:46:20.514Z,54.00
2019-04-11T17:48:50.441Z,54.40
2019-04-11T17:51:19.311Z,54.90
2019-04-11T17:53:47.989Z,55.10
2019-04-11T17:56:16.740Z,55.10
2019-04-11T17:58:48.064Z,54.90
2019-04-11T18:01:19.892Z,55.20
2019-04-11T18:03:48.347Z,55.10
2019-04-11T18:06:17.721Z,55.10
2019-04-11T18:08:46.743Z,55.10
2019-04-11T18:11:15.914Z,55.00
2019-04-11T18:13:44.872Z,55.10
2019-04-11T18:16:13.523Z,55.20
2019-04-11T18:19:01.377Z,55.20
2019-04-11T18:21:29.981Z,54.90
2019-04-11T18:23:58.814Z,55.30
2019-04-11T18:26:27.370Z,55.60
2019-04-11T18:28:56.086Z,55.60
2019-04-11T18:31:25.575Z,55.90
2019-04-11T18:33:54.458Z,55.70
2019-04-11T18:36:22.939Z,55.70
2019-04-11T18:39:11.027Z,55.70
2019-04-11T18:41:39.627Z,55.40
2019-04-11T18:44:08.262Z,55.40
2019-04-11T18:46:36.747Z,55.30
2019-04-11T18:49:05.446Z,55.40
2019-04-11T18:51:35.565Z,55.30
2019-04-11T18:54:04.024Z,55.60
2019-04-11T19:02:10.324Z,54.90
2019-04-11T19:04:42.036Z,54.80
2019-04-11T19:07:12.740Z,55.10
2019-04-11T19:09:43.426Z,55.30
2019-04-11T19:12:09.874Z,54.90
2019-04-11T19:14:38.301Z,55.30
2019-04-11T19:17:06.743Z,55.50
2019-04-11T19:19:35.210Z,55.80
2019-04-11T19:22:04.243Z,55.90
2019-04-11T19:24:35.697Z,56.00
2019-04-11T19:27:03.137Z,56.30
2019-04-11T19:29:31.811Z,56.30
2019-04-11T19:34:29.283Z,56.40
2019-04-11T19:36:57.914Z,56.70
2019-04-11T19:39:26.425Z,56.50
2019-04-11T19:41:54.968Z,56.50
2019-04-11T19:44:23.654Z,56.40
2019-04-11T19:46:52.148Z,56.40
2019-04-11T19:49:20.585Z,56.70
2019-04-11T19:51:50.876Z,56.60
2019-04-11T19:54:19.296Z,57.20
2019-04-11T19:56:49.601Z,56.60
2019-04-11T19:59:18.227Z,56.60
2019-04-11T20:01:46.912Z,56.50
2019-04-11T20:04:15.410Z,56.50
2019-04-11T20:06:43.923Z,56.40
2019-04-11T20:09:12.853Z,56.30
2019-04-11T20:11:41.322Z,55.90
2019-04-11T20:14:10.077Z,55.70
2019-04-11T20:16:41.909Z,55.90
2019-04-11T20:19:08.724Z,56.60
2019-04-11T20:21:38.365Z,55.90
2019-04-11T20:24:07.498Z,55.80
2019-04-11T20:26:36.148Z,55.90
2019-04-11T20:29:04.712Z,56.00
2019-04-11T20:31:33.304Z,56.20
2019-04-11T20:34:06.648Z,56.30
2019-04-11T20:36:33.698Z,56.30
2019-04-11T20:39:02.247Z,56.30
2019-04-11T20:41:30.696Z,56.30
2019-04-11T20:43:59.291Z,56.30
2019-04-11T20:46:29.179Z,56.30
2019-04-11T20:48:57.894Z,56.50
2019-04-11T20:51:26.479Z,56.80
2019-04-11T20:53:54.903Z,56.80
2019-04-11T20:56:24.577Z,56.60
2019-04-11T20:58:53.217Z,56.40
2019-04-11T21:01:23.781Z,56.10
2019-04-11T21:03:51.923Z,56.10
2019-04-11T21:06:20.615Z,56.40
2019-04-11T21:08:49.080Z,57.30
2019-04-11T21:11:18.757Z,56.70
2019-04-11T21:13:47.456Z,56.80
2019-04-11T21:16:15.888Z,56.80
2019-04-11T21:18:44.343Z,56.80
2019-04-11T21:21:19.613Z,56.70
2019-04-11T21:23:48.110Z,56.60
2019-04-11T21:26:16.563Z,56.70
2019-04-11T21:28:45.018Z,56.70
2019-04-11T21:31:13.453Z,56.60
2019-04-11T21:33:41.873Z,56.70
2019-04-11T21:36:31.726Z,56.50
2019-04-11T21:39:03.579Z,56.40
2019-04-11T21:41:30.177Z,56.50
2019-04-11T21:43:58.657Z,56.60
2019-04-11T21:46:27.112Z,56.70
2019-04-11T21:48:55.622Z,56.50
2019-04-11T21:51:24.130Z,56.60
2019-04-11T21:53:52.882Z,56.60
2019-04-11T21:56:21.410Z,56.70
2019-04-11T21:58:50.669Z,56.80
2019-04-11T22:01:22.018Z,56.70
2019-04-11T22:03:51.917Z,56.80
2019-04-11T22:06:21.560Z,56.90
2019-04-11T22:08:49.980Z,56.90
2019-04-11T22:11:18.412Z,56.90
2019-04-11T22:13:47.156Z,56.80
2019-04-11T22:16:15.623Z,56.40
2019-04-11T22:18:44.579Z,56.60
2019-04-11T22:21:15.540Z,56.70
2019-04-11T22:23:49.050Z,57.00
2019-04-11T22:26:13.761Z,56.90
2019-04-11T22:28:42.179Z,56.70
2019-04-11T22:31:10.634Z,56.90
2019-04-11T22:33:40.707Z,56.90
2019-04-11T22:36:09.200Z,57.10
2019-04-11T22:38:37.628Z,57.20
2019-04-11T22:41:06.055Z,57.40
2019-04-11T22:43:37.853Z,57.40
2019-04-11T22:46:07.706Z,57.30
2019-04-11T22:48:36.810Z,58.00
2019-04-11T22:51:05.071Z,57.30
2019-04-11T22:53:33.491Z,57.70
2019-04-11T22:56:02.172Z,57.60
2019-04-11T22:58:30.732Z,57.70
2019-04-11T23:00:59.147Z,57.80
2019-04-11T23:03:32.127Z,58.10
2019-04-11T23:06:00.553Z,58.10
2019-04-11T23:08:28.985Z,58.20
2019-04-11T23:10:57.420Z,58.50
2019-04-11T23:13:26.699Z,58.90
2019-04-11T23:15:55.168Z,59.00
2019-04-11T23:18:23.595Z,59.20
2019-04-11T23:20:52.010Z,59.80
2019-04-11T23:23:20.447Z,59.70
2019-04-11T23:25:48.862Z,59.90
2019-04-11T23:28:17.310Z,60.00
2019-04-11T23:30:49.589Z,60.50
2019-04-11T23:33:15.887Z,61.10
2019-04-11T23:35:44.320Z,61.50
2019-04-11T23:38:12.743Z,61.70
2019-04-11T23:40:41.171Z,61.70
2019-04-11T23:43:09.613Z,62.20
2019-04-11T23:45:38.027Z,61.90
2019-04-11T23:48:06.458Z,62.20
2019-04-11T23:50:55.167Z,62.50
2019-04-11T23:53:28.345Z,62.70
2019-04-11T23:55:54.372Z,62.90
2019-04-11T23:58:22.811Z,63.30
